Chief — WCZ2047 — position and weather

sailwx.info

Track history (hours):
 
Tides and Currents Weather Stations Pressure Air Temp Water Temp Dewpoint Dewpoint Depression Visibility Wind Speed Wind Dir Waves Ship Positions

Chief

Owner: Crowley Marine Services, SEATTLE, WA. More information available from US FCC via Universal Licensing System and Coast Guard Vessel Documentation Center.

Last reported at 2018-May-21 15:41 UTC. Time now 2018-May-22 02:20 UTC.
Position N 47°35' W 122°21'.

Length 34 m; draft 5.1 m.

Type: Tug. MMSI: 366764740.

Date/timePositionNaut miles runAvg speedWind from/ knotsBaromVisibWave heightAir tempDewpointWater temp
2018-May-21 15:41N 47°35' W 122°21'0 0.0
2018-May-21 15:30N 47°35' W 122°21'0 0.0
2018-May-21 15:00N 47°35' W 122°21'0 0.0
2018-May-21 14:30N 47°35' W 122°21'0 0.0
2018-May-21 14:00N 47°35' W 122°21'0 0.0
2018-May-21 13:30N 47°35' W 122°21'0 0.0
2018-May-21 13:00N 47°35' W 122°21'0 0.0
2018-May-21 12:25N 47°35' W 122°21'0 0.0
2018-May-21 12:00N 47°35' W 122°21'0 0.1
2018-May-21 11:30N 47°35' W 122°21'0 0.1
2018-May-21 11:00N 47°35' W 122°21'0 0.0
2018-May-21 10:30N 47°35' W 122°21'0 0.0
2018-May-21 10:00N 47°35' W 122°21'0 0.0
2018-May-21 09:30N 47°35' W 122°21'0 0.0
2018-May-21 09:00N 47°35' W 122°21'0 0.0
2018-May-21 08:30N 47°35' W 122°21'0 0.0
2018-May-21 08:00N 47°35' W 122°21'0 0.0
2018-May-21 07:30N 47°35' W 122°21'0 0.0
2018-May-21 07:00N 47°35' W 122°21'0 0.0
2018-May-21 06:30N 47°35' W 122°21'0 0.0
2018-May-21 06:00N 47°35' W 122°21'0 0.0
2018-May-21 05:30N 47°35' W 122°21'0 0.0
2018-May-21 05:00N 47°35' W 122°21'0 0.0
2018-May-21 04:30N 47°35' W 122°21'0 0.0
2018-May-21 03:59N 47°35' W 122°21'1 1.9
2018-May-21 03:30N 47°36' W 122°22'3 6.2
2018-May-21 03:00N 47°34' W 122°26'4 7.8
2018-May-21 02:30N 47°30' W 122°25'4 7.9
2018-May-21 02:00N 47°26' W 122°23'4 7.6
2018-May-21 01:30N 47°22' W 122°22'4 8.3
2018-May-21 01:00N 47°19' W 122°26'3 5.7
2018-May-21 00:30N 47°17' W 122°25'0 0.7
2018-May-21 00:00N 47°16' W 122°25'1 2.2
2018-May-20 23:30N 47°15' W 122°26'0 0.0
2018-May-20 23:00N 47°15' W 122°26'0 0.0
2018-May-20 22:27N 47°15' W 122°26'0 0.0
2018-May-20 22:00N 47°15' W 122°26'0 0.0
2018-May-20 21:29N 47°15' W 122°26'0 0.0
2018-May-20 21:00N 47°15' W 122°26'0 0.0
2018-May-20 20:30N 47°15' W 122°26'0 0.0
2018-May-20 20:00N 47°15' W 122°26'0 0.0
2018-May-20 19:30N 47°15' W 122°26'0 0.0
2018-May-20 19:00N 47°15' W 122°26'0 0.0
2018-May-20 18:23N 47°15' W 122°26'0 0.0
2018-May-20 18:00N 47°15' W 122°26'0 0.0
2018-May-20 17:30N 47°15' W 122°26'0 0.0
2018-May-20 17:00N 47°15' W 122°26'0 0.0
2018-May-20 16:30N 47°15' W 122°26'0 0.0
2018-May-20 16:00N 47°15' W 122°26'0 0.0
2018-May-20 15:30N 47°15' W 122°26'0 0.0
2018-May-20 15:00N 47°15' W 122°26'0 0.0
2018-May-20 14:27N 47°15' W 122°26'0 0.0
2018-May-20 14:00N 47°15' W 122°26'0 0.0
2018-May-20 13:30N 47°15' W 122°26'0 0.0
2018-May-20 13:00N 47°15' W 122°26'0 0.0
2018-May-20 12:30N 47°15' W 122°26'0 0.0
2018-May-20 12:00N 47°15' W 122°26'0 0.0
2018-May-20 11:30N 47°15' W 122°26'0 0.0
2018-May-20 11:00N 47°15' W 122°26'0 0.0
2018-May-20 10:30N 47°15' W 122°26'0 0.0
2018-May-20 10:00N 47°15' W 122°26'0 0.0
2018-May-20 09:30N 47°15' W 122°26'0 0.0
2018-May-20 09:00N 47°15' W 122°26'0 0.0
2018-May-20 08:29N 47°15' W 122°26'0 0.0
2018-May-20 08:00N 47°15' W 122°26'0 0.0
2018-May-20 07:30N 47°15' W 122°26'1 2.2
2018-May-20 07:00N 47°16' W 122°25'1 1.2
2018-May-20 06:30N 47°17' W 122°25'1 2.3
2018-May-20 05:59N 47°18' W 122°26'0 0.7
2018-May-20 05:29N 47°18' W 122°26'0 0.0
2018-May-20 05:00N 47°18' W 122°26'0 0.0
2018-May-20 04:19N 47°18' W 122°26'0 0.0
2018-May-20 04:00N 47°18' W 122°26'0 0.0
2018-May-20 03:30N 47°18' W 122°26'0 0.0
2018-May-20 02:58N 47°18' W 122°26'2 3.7
2018-May-20 02:30N 47°16' W 122°24'1 2.0
2018-May-20 02:00N 47°16' W 122°23'0 0.0
2018-May-20 01:30N 47°16' W 122°23'0 0.2
2018-May-20 01:00N 47°16' W 122°23'1 2.9
2018-May-20 00:30N 47°17' W 122°25'0 0.5
2018-May-20 00:00N 47°17' W 122°25'0 0.2
2018-May-19 23:30N 47°17' W 122°24'0 0.0
2018-May-19 23:00N 47°17' W 122°24'0 0.0
2018-May-19 22:26N 47°17' W 122°24'3 5.8
2018-May-19 22:00N 47°18' W 122°27'4 7.6
2018-May-19 21:29N 47°22' W 122°25'3 6.6
2018-May-19 21:00N 47°25' W 122°24'4 8.2
2018-May-19 20:30N 47°29' W 122°26'4 8.4
2018-May-19 20:00N 47°33' W 122°27'4 7.3
2018-May-19 19:30N 47°36' W 122°24'2 4.4
2018-May-19 19:00N 47°35' W 122°21'0 0.8
2018-May-19 18:30N 47°35' W 122°21'0 0.0
2018-May-19 17:59N 47°35' W 122°21'0 0.0
2018-May-19 17:30N 47°35' W 122°21'0 0.0
2018-May-19 17:00N 47°35' W 122°21'0 0.0
2018-May-19 16:30N 47°35' W 122°21'0 0.0
2018-May-19 16:00N 47°35' W 122°21'0 0.0
2018-May-19 15:30N 47°35' W 122°21'0 0.3
2018-May-19 15:00N 47°35' W 122°21'1 1.4
2018-May-19 14:30N 47°36' W 122°21'4 8.0
2018-May-19 14:00N 47°33' W 122°26'510.6
2018-May-19 13:30N 47°28' W 122°24'510.4
2018-May-19 13:00N 47°23' W 122°21'510.0
2018-May-19 12:30N 47°20' W 122°26'4 7.6
2018-May-19 11:57N 47°16' W 122°23'0 0.4
2018-May-19 11:30N 47°16' W 122°23'1 1.7
2018-May-19 11:00N 47°16' W 122°24'2 3.4
2018-May-19 10:29N 47°18' W 122°26'0 0.5
2018-May-19 09:57N 47°18' W 122°26'0 0.0
2018-May-19 09:30N 47°18' W 122°26'0 0.0
2018-May-19 08:56N 47°18' W 122°26'0 0.0
2018-May-19 08:28N 47°18' W 122°26'0 0.0
2018-May-19 08:00N 47°18' W 122°26'0 0.0
2018-May-19 07:30N 47°18' W 122°26'0 0.2
2018-May-19 07:00N 47°18' W 122°26'3 5.6
2018-May-19 06:29N 47°21' W 122°26'4 8.1
2018-May-19 06:00N 47°24' W 122°22'4 8.6
2018-May-19 05:30N 47°27' W 122°25'4 8.2
2018-May-19 05:00N 47°31' W 122°26'4 7.8
2018-May-19 04:30N 47°35' W 122°25'3 5.7
2018-May-19 04:00N 47°35' W 122°21'0 0.0
2018-May-19 03:30N 47°35' W 122°21'0 0.0
2018-May-19 03:00N 47°35' W 122°21'0 0.0
2018-May-19 02:30N 47°35' W 122°21'0 0.0
2018-May-19 02:00N 47°35' W 122°21'1 1.1
2018-May-19 01:30N 47°35' W 122°21'0 0.0
2018-May-19 01:00N 47°35' W 122°21'0 0.0
2018-May-19 00:30N 47°35' W 122°21'0 0.1
2018-May-19 00:00N 47°35' W 122°21'1 2.1
2018-May-18 23:30N 47°36' W 122°21'1 2.8
2018-May-18 23:00N 47°36' W 122°23'0 0.4
2018-May-18 22:30N 47°36' W 122°23'1 2.9
2018-May-18 22:00N 47°35' W 122°21'0 0.2
2018-May-18 21:30N 47°35' W 122°21'0 0.7
2018-May-18 21:00N 47°35' W 122°21'0 0.0
2018-May-18 20:30N 47°35' W 122°21'0 0.0
2018-May-18 20:00N 47°35' W 122°21'0 0.0
2018-May-18 19:30N 47°35' W 122°21'0 0.0
2018-May-18 19:00N 47°35' W 122°21'0 0.0
2018-May-18 18:30N 47°35' W 122°21'0 0.0
2018-May-18 18:00N 47°35' W 122°21'0 0.0
2018-May-18 17:30N 47°35' W 122°21'0 0.0
2018-May-18 17:00N 47°35' W 122°21'0 0.0
2018-May-18 16:30N 47°35' W 122°21'0 0.0
2018-May-18 16:00N 47°35' W 122°21'0 0.0
2018-May-18 15:30N 47°35' W 122°21'0 0.0
2018-May-18 15:00N 47°35' W 122°21'0 0.5
2018-May-18 14:30N 47°35' W 122°21'1 1.1
2018-May-18 14:00N 47°35' W 122°21'0 0.8
2018-May-18 13:30N 47°35' W 122°21'2 3.6
2018-May-18 13:00N 47°37' W 122°22'1 2.3
2018-May-18 12:30N 47°36' W 122°21'0 0.5
2018-May-18 12:00N 47°35' W 122°21'0 0.0
2018-May-18 11:30N 47°35' W 122°21'0 0.0
2018-May-18 11:00N 47°35' W 122°21'0 0.0
2018-May-18 10:30N 47°35' W 122°21'0 0.0
2018-May-18 10:00N 47°35' W 122°21'0 0.0
2018-May-18 09:30N 47°35' W 122°21'0 0.0
2018-May-18 09:00N 47°35' W 122°21'0 0.0
2018-May-18 08:30N 47°35' W 122°21'0 0.0
2018-May-18 08:00N 47°35' W 122°21'0 0.8
2018-May-18 07:30N 47°36' W 122°21'4 8.4
2018-May-18 07:00N 47°38' W 122°26'4 7.1
2018-May-18 06:30N 47°42' W 122°28'4 8.0
2018-May-18 06:00N 47°46' W 122°27'4 8.5
2018-May-18 05:30N 47°50' W 122°28'4 8.2
2018-May-18 05:00N 47°54' W 122°30'32 7.7
2018-May-18 00:50N 48°11' W 123°11'410.8
2018-May-18 00:30N 48°10' W 123°16'510.7
2018-May-18 00:00N 48°08' W 123°23'2 2.6
2018-May-17 23:09N 48°08' W 123°27'0 0.1
2018-May-17 23:00N 48°08' W 123°27'2 3.2
2018-May-17 22:30N 48°08' W 123°24'2 2.5
2018-May-17 21:53N 48°08' W 123°27'0 0.0
2018-May-17 20:12N 48°08' W 123°27'2 7.3
2018-May-17 20:00N 48°08' W 123°24'0 0.3
2018-May-17 19:25N 48°08' W 123°25'1 2.3
2018-May-17 18:57N 48°07' W 123°26'31 9.5
2018-May-17 15:39N 48°06' W 122°39'311.4
2018-May-17 15:23N 48°03' W 122°38'411.2
2018-May-17 15:00N 47°59' W 122°35'510.9
2018-May-17 14:31N 47°56' W 122°30'5 9.8
2018-May-17 14:00N 47°51' W 122°28'5 9.4
2018-May-17 13:30N 47°46' W 122°26'5 9.0
2018-May-17 13:00N 47°42' W 122°26'4 8.6
2018-May-17 12:30N 47°38' W 122°27'4 8.9
2018-May-17 12:01N 47°33' W 122°26'4 8.8
2018-May-17 11:30N 47°29' W 122°24'4 8.7
2018-May-17 11:00N 47°25' W 122°22'4 7.1
2018-May-17 10:31N 47°21' W 122°23'4 8.1
2018-May-17 10:00N 47°18' W 122°27'3 6.0
2018-May-17 09:31N 47°15' W 122°26'0 0.0
2018-May-17 09:01N 47°15' W 122°26'0 0.0
2018-May-17 08:30N 47°15' W 122°26'0 0.0
2018-May-17 08:00N 47°15' W 122°26'0 0.0
2018-May-17 07:30N 47°15' W 122°26'0 0.0
2018-May-17 07:00N 47°15' W 122°26'0 0.0
2018-May-17 06:31N 47°15' W 122°26'0 0.0
2018-May-17 06:01N 47°15' W 122°26'0 0.0
2018-May-17 05:30N 47°15' W 122°26'0 0.0
2018-May-17 05:00N 47°15' W 122°26'0 0.0
2018-May-17 04:31N 47°15' W 122°26'0 0.0
2018-May-17 04:01N 47°15' W 122°26'0 0.0
2018-May-17 03:31N 47°15' W 122°26'0 0.0
2018-May-17 03:00N 47°15' W 122°26'1 2.4
2018-May-17 02:31N 47°16' W 122°26'2 2.8
2018-May-17 01:52N 47°17' W 122°23'1 2.3
2018-May-17 01:31N 47°16' W 122°22'0 0.1
2018-May-17 00:21N 47°16' W 122°22'0 0.9
2018-May-16 23:54N 47°16' W 122°23'1 3.4
2018-May-16 23:30N 47°17' W 122°25'0 0.2
2018-May-16 22:59N 47°17' W 122°25'1 2.7
2018-May-16 22:27N 47°16' W 122°23'0 0.7
2018-May-16 21:59N 47°15' W 122°23'2 3.6
2018-May-16 21:30N 47°17' W 122°25'2 3.9
2018-May-16 21:00N 47°18' W 122°27'2 3.3
2018-May-16 20:29N 47°17' W 122°25'1 2.1
2018-May-16 19:53N 47°18' W 122°26'0 0.0
2018-May-16 19:28N 47°18' W 122°26'0 0.0
2018-May-16 19:00N 47°18' W 122°26'0 0.0
2018-May-16 18:28N 47°18' W 122°26'0 0.0
2018-May-16 18:00N 47°18' W 122°26'0 0.0
2018-May-16 17:30N 47°18' W 122°26'0 0.0
2018-May-16 16:58N 47°18' W 122°26'0 0.0
2018-May-16 16:30N 47°18' W 122°26'0 0.0
2018-May-16 15:39N 47°18' W 122°26'0 0.0
2018-May-16 15:24N 47°18' W 122°26'0 0.0
2018-May-16 14:55N 47°18' W 122°26'0 0.0
2018-May-16 14:30N 47°18' W 122°26'0 0.0
2018-May-16 13:59N 47°18' W 122°26'0 0.0
2018-May-16 13:29N 47°18' W 122°26'0 0.0
2018-May-16 12:57N 47°18' W 122°26'2 3.5
2018-May-16 12:29N 47°16' W 122°25'0 1.0
2018-May-16 12:00N 47°17' W 122°26'1 1.8
2018-May-16 11:31N 47°16' W 122°24'1 2.0
2018-May-16 11:01N 47°16' W 122°23'0 0.1
2018-May-16 10:30N 47°16' W 122°23'2 4.4
2018-May-16 10:00N 47°16' W 122°26'1 2.2
2018-May-16 09:30N 47°15' W 122°26'0 0.0
2018-May-16 08:58N 47°15' W 122°26'0 0.0
2018-May-16 08:30N 47°15' W 122°26'0 0.0
2018-May-16 08:00N 47°15' W 122°26'0 0.0
2018-May-16 07:29N 47°15' W 122°26'0 0.0
2018-May-16 07:01N 47°15' W 122°26'0 0.0
2018-May-16 06:25N 47°15' W 122°26'0 0.0
2018-May-16 06:00N 47°15' W 122°26'0 0.0
2018-May-16 05:30N 47°15' W 122°26'0 0.0
2018-May-16 04:57N 47°15' W 122°26'0 0.0
2018-May-16 04:22N 47°15' W 122°26'0 0.0
2018-May-16 04:00N 47°15' W 122°26'0 0.0
2018-May-16 03:30N 47°15' W 122°26'0 0.0
2018-May-16 03:00N 47°15' W 122°26'0 0.0
2018-May-16 02:31N 47°15' W 122°26'0 0.0
2018-May-16 01:33N 47°15' W 122°26'0 0.0
2018-May-16 01:31N 47°15' W 122°26'0 0.0
2018-May-16 01:00N 47°15' W 122°26'0 0.0
2018-May-16 00:31N 47°15' W 122°26'2 3.2
2018-May-15 23:56N 47°16' W 122°23'0 0.3
2018-May-15 23:31N 47°16' W 122°23'1 2.1
2018-May-15 23:00N 47°16' W 122°24'2 4.9
2018-May-15 22:31N 47°18' W 122°27'2 3.7
2018-May-15 21:57N 47°17' W 122°25'2 3.5
2018-May-15 21:30N 47°15' W 122°26'0 0.0
2018-May-15 21:00N 47°15' W 122°26'0 0.0
2018-May-15 20:30N 47°15' W 122°26'0 0.0
2018-May-15 19:59N 47°15' W 122°26'0 0.0
2018-May-15 19:24N 47°15' W 122°26'0 0.0
2018-May-15 19:00N 47°15' W 122°26'0 0.0
2018-May-15 18:27N 47°15' W 122°26'0 0.0
2018-May-15 17:59N 47°15' W 122°26'0 0.0
2018-May-15 17:11N 47°15' W 122°26'0 0.0
2018-May-15 16:59N 47°15' W 122°26'0 0.0
2018-May-15 15:59N 47°15' W 122°26'0 0.0
2018-May-15 15:29N 47°15' W 122°26'0 0.0
2018-May-15 15:00N 47°15' W 122°26'0 0.0
2018-May-15 14:30N 47°15' W 122°26'0 0.0
2018-May-15 13:58N 47°15' W 122°26'0 0.0
2018-May-15 13:31N 47°15' W 122°26'0 0.0
2018-May-15 13:00N 47°15' W 122°26'0 0.0
2018-May-15 12:31N 47°15' W 122°26'1 2.4
2018-May-15 12:00N 47°17' W 122°26'2 3.8
2018-May-15 11:30N 47°16' W 122°23'0 0.7
2018-May-15 10:48N 47°15' W 122°23'0 0.2
2018-May-15 10:30N 47°16' W 122°23'2 4.8
2018-May-15 10:01N 47°16' W 122°26'1 2.1
2018-May-15 09:31N 47°15' W 122°26'0 0.0
2018-May-15 09:00N 47°15' W 122°26'0 0.0
2018-May-15 08:27N 47°15' W 122°26'0 0.0
2018-May-15 07:58N 47°15' W 122°26'0 0.0
2018-May-15 07:30N 47°15' W 122°26'0 0.0
2018-May-15 07:00N 47°15' W 122°26'0 0.0
2018-May-15 06:30N 47°15' W 122°26'0 0.0
2018-May-15 06:00N 47°15' W 122°26'0 0.0
2018-May-15 05:30N 47°15' W 122°26'0 0.0
2018-May-15 05:01N 47°15' W 122°26'0 0.0
2018-May-15 04:31N 47°15' W 122°26'0 0.0
2018-May-15 04:01N 47°15' W 122°26'0 0.0
2018-May-15 03:30N 47°15' W 122°26'0 0.0
2018-May-15 03:01N 47°15' W 122°26'0 0.0
2018-May-15 02:30N 47°15' W 122°26'0 0.0
2018-May-15 01:52N 47°15' W 122°26'0 0.0
2018-May-15 01:30N 47°15' W 122°26'0 0.0
2018-May-15 01:00N 47°15' W 122°26'0 0.0
2018-May-15 00:30N 47°15' W 122°26'0 0.0
2018-May-15 00:00N 47°15' W 122°26'2 3.2
2018-May-14 23:30N 47°17' W 122°25'2 3.3
2018-May-14 23:01N 47°16' W 122°23'0 0.1
2018-May-14 22:30N 47°16' W 122°23'0 0.2
2018-May-14 21:58N 47°16' W 122°23'0 0.0
2018-May-14 19:44N 47°16' W 122°23'0 0.3
2018-May-14 18:17N 47°16' W 122°23'0 0.8
2018-May-14 18:00N 47°16' W 122°23'2 3.6
2018-May-14 17:31N 47°17' W 122°25'1 2.1
2018-May-14 17:00N 47°17' W 122°26'1 1.8
2018-May-14 16:30N 47°18' W 122°27'2 3.5
2018-May-14 16:00N 47°16' W 122°27'0 0.3
2018-May-14 15:31N 47°16' W 122°27'0 0.2
2018-May-14 15:01N 47°16' W 122°27'0 0.1
2018-May-14 14:30N 47°16' W 122°27'0 0.1
2018-May-14 13:58N 47°16' W 122°27'0 0.2
2018-May-14 13:28N 47°16' W 122°27'1 2.8
2018-May-14 13:01N 47°15' W 122°26'0 0.0
2018-May-14 12:30N 47°15' W 122°26'0 0.0
2018-May-14 11:59N 47°15' W 122°26'0 0.0
2018-May-14 11:31N 47°15' W 122°26'0 0.0
2018-May-14 11:00N 47°15' W 122°26'2 3.3
2018-May-14 10:31N 47°16' W 122°24'1 1.9
2018-May-14 10:00N 47°16' W 122°23'1 1.4
2018-May-14 09:30N 47°16' W 122°24'2 4.1
2018-May-14 08:59N 47°18' W 122°26'0 0.1
2018-May-14 08:30N 47°18' W 122°26'0 0.0
2018-May-14 08:00N 47°18' W 122°26'0 0.0
2018-May-14 07:30N 47°18' W 122°26'0 0.0
2018-May-14 06:59N 47°18' W 122°26'0 0.0
2018-May-14 06:29N 47°18' W 122°26'0 0.0
2018-May-14 05:55N 47°18' W 122°26'0 0.0
2018-May-14 05:30N 47°18' W 122°26'0 0.0
2018-May-14 04:59N 47°18' W 122°26'0 0.0
2018-May-14 04:21N 47°18' W 122°26'0 0.0
2018-May-14 03:52N 47°18' W 122°26'1 3.7
2018-May-14 03:30N 47°17' W 122°25'2 3.2
2018-May-14 03:00N 47°16' W 122°23'0 0.3
2018-May-14 02:30N 47°16' W 122°23'2 3.6
2018-May-14 02:00N 47°17' W 122°25'1 1.5
2018-May-14 01:31N 47°17' W 122°26'2 3.6
2018-May-14 01:00N 47°15' W 122°26'0 0.0
2018-May-14 00:30N 47°15' W 122°26'0 0.0
2018-May-13 23:59N 47°15' W 122°26'0 0.0
2018-May-13 23:30N 47°15' W 122°26'0 0.0
2018-May-13 22:58N 47°15' W 122°26'0 0.0
2018-May-13 22:28N 47°15' W 122°26'0 0.0
2018-May-13 21:37N 47°15' W 122°26'0 0.0
2018-May-13 21:30N 47°15' W 122°26'0 0.0
2018-May-13 20:52N 47°15' W 122°26'0 0.0
2018-May-13 20:30N 47°15' W 122°26'0 0.0
2018-May-13 19:59N 47°15' W 122°26'0 0.0
2018-May-13 18:45N 47°15' W 122°26'0 0.1
2018-May-13 18:30N 47°15' W 122°26'2 3.3
2018-May-13 17:52N 47°15' W 122°23'0 0.0
2018-May-13 17:28N 47°16' W 122°23'1 1.7
2018-May-13 16:56N 47°16' W 122°24'2 4.1
2018-May-13 16:30N 47°17' W 122°26'1 1.0
2018-May-13 16:00N 47°18' W 122°26'0 0.0
2018-May-13 15:13N 47°18' W 122°26'0 0.1
2018-May-13 15:00N 47°18' W 122°26'0 0.0
2018-May-13 14:30N 47°18' W 122°26'0 0.0
2018-May-13 13:49N 47°18' W 122°26'0 0.1
2018-May-13 13:30N 47°18' W 122°26'0 0.0
2018-May-13 12:15N 47°18' W 122°26'0 0.1
2018-May-13 11:58N 47°18' W 122°26'1 1.4
2018-May-13 11:25N 47°17' W 122°25'2 4.4
2018-May-13 11:00N 47°16' W 122°23'0 0.2
2018-May-13 10:30N 47°16' W 122°23'2 4.7
2018-May-13 10:00N 47°18' W 122°26'0 0.0
2018-May-13 09:26N 47°18' W 122°26'0 0.0
2018-May-13 09:00N 47°18' W 122°26'0 0.0
2018-May-13 08:29N 47°18' W 122°26'0 0.0
2018-May-13 08:00N 47°18' W 122°26'0 0.0
2018-May-13 07:30N 47°18' W 122°26'0 0.0
2018-May-13 06:58N 47°18' W 122°26'0 0.0
2018-May-13 06:31N 47°18' W 122°26'0 0.0
2018-May-13 05:59N 47°18' W 122°26'0 0.9
2018-May-13 05:31N 47°18' W 122°26'4 8.7
2018-May-13 05:00N 47°20' W 122°32'4 7.9
2018-May-13 04:31N 47°24' W 122°32'4 8.5
2018-May-13 04:00N 47°28' W 122°31'4 8.9
2018-May-13 03:31N 47°32' W 122°28'1 2.2
2018-May-13 03:01N 47°33' W 122°29'0 0.2
2018-May-13 02:30N 47°33' W 122°29'0 0.1
2018-May-13 02:01N 47°33' W 122°29'0 0.1
2018-May-13 01:31N 47°33' W 122°29'0 0.0
2018-May-13 01:00N 47°33' W 122°29'0 0.1
2018-May-13 00:31N 47°33' W 122°29'0 0.1
2018-May-13 00:01N 47°33' W 122°29'0 0.0
2018-May-12 23:31N 47°33' W 122°29'0 0.1
2018-May-12 23:01N 47°33' W 122°29'0 0.1
2018-May-12 22:31N 47°33' W 122°29'0 0.2
2018-May-12 22:01N 47°33' W 122°29'0 0.1
2018-May-12 21:31N 47°33' W 122°29'0 0.1
2018-May-12 21:01N 47°33' W 122°29'0 0.1
2018-May-12 20:30N 47°33' W 122°29'0 0.1
2018-May-12 20:00N 47°33' W 122°29'0 0.1
2018-May-12 19:31N 47°33' W 122°29'0 0.0
2018-May-12 19:01N 47°33' W 122°29'0 0.0
2018-May-12 18:30N 47°33' W 122°29'0 0.0
2018-May-12 18:01N 47°33' W 122°29'0 0.1
2018-May-12 17:30N 47°33' W 122°29'0 0.1
2018-May-12 17:01N 47°33' W 122°29'2 4.1
2018-May-12 16:31N 47°31' W 122°29'5 9.7
2018-May-12 16:01N 47°27' W 122°31'5 9.8
2018-May-12 15:31N 47°22' W 122°32'4 7.5
2018-May-12 15:00N 47°19' W 122°29'3 5.0
2018-May-12 14:30N 47°18' W 122°26'0 0.0
2018-May-12 14:00N 47°18' W 122°26'0 0.0
2018-May-12 13:29N 47°18' W 122°26'0 0.0
2018-May-12 13:00N 47°18' W 122°26'0 0.0
2018-May-12 12:31N 47°18' W 122°26'0 0.0
2018-May-12 12:00N 47°18' W 122°26'0 0.0
2018-May-12 11:31N 47°18' W 122°26'0 0.0
2018-May-12 11:01N 47°18' W 122°26'1 2.4
2018-May-12 10:30N 47°17' W 122°26'1 2.6
2018-May-12 10:01N 47°15' W 122°26'0 0.0
2018-May-12 09:28N 47°15' W 122°26'0 0.0
2018-May-12 08:59N 47°15' W 122°26'0 0.0
2018-May-12 08:31N 47°15' W 122°26'0 0.0
2018-May-12 08:00N 47°15' W 122°26'0 0.0
2018-May-12 07:30N 47°15' W 122°26'0 0.0
2018-May-12 06:53N 47°15' W 122°26'0 0.0
2018-May-12 06:22N 47°15' W 122°26'0 0.0
2018-May-12 05:59N 47°15' W 122°26'0 0.0
2018-May-12 05:30N 47°15' W 122°26'0 0.0
2018-May-12 05:00N 47°15' W 122°26'0 0.0
2018-May-12 04:30N 47°15' W 122°26'0 0.0
2018-May-12 03:59N 47°15' W 122°26'0 0.0
2018-May-12 03:28N 47°15' W 122°26'0 0.0
2018-May-12 03:00N 47°15' W 122°26'0 0.4
2018-May-12 02:30N 47°15' W 122°26'2 0.6
2018-May-11 22:30N 47°16' W 122°23'2 0.4
2018-May-11 18:33N 47°16' W 122°25'1 2.7
2018-May-11 18:12N 47°16' W 122°26'  
Track history (hours):
 
Tides and Currents Weather Stations Pressure Air Temp Water Temp Dewpoint Dewpoint Depression Visibility Wind Speed Wind Dir Waves Ship Positions

Chief

Owner: Crowley Marine Services, SEATTLE, WA. More information available from US FCC via Universal Licensing System and Coast Guard Vessel Documentation Center.

Last reported at 2018-May-21 15:41 UTC. Time now 2018-May-22 02:20 UTC.
Position N 47°35' W 122°21'.

Length 34 m; draft 5.1 m.

Type: Tug. MMSI: 366764740.

Date/timePositionNaut miles runAvg speedWind from/ knotsBaromVisibWave heightAir tempDewpointWater temp
2018-May-21 15:41N 47°35' W 122°21'0 0.0
2018-May-21 15:30N 47°35' W 122°21'0 0.0
2018-May-21 15:00N 47°35' W 122°21'0 0.0
2018-May-21 14:30N 47°35' W 122°21'0 0.0
2018-May-21 14:00N 47°35' W 122°21'0 0.0
2018-May-21 13:30N 47°35' W 122°21'0 0.0
2018-May-21 13:00N 47°35' W 122°21'0 0.0
2018-May-21 12:25N 47°35' W 122°21'0 0.0
2018-May-21 12:00N 47°35' W 122°21'0 0.1
2018-May-21 11:30N 47°35' W 122°21'0 0.1
2018-May-21 11:00N 47°35' W 122°21'0 0.0
2018-May-21 10:30N 47°35' W 122°21'0 0.0
2018-May-21 10:00N 47°35' W 122°21'0 0.0
2018-May-21 09:30N 47°35' W 122°21'0 0.0
2018-May-21 09:00N 47°35' W 122°21'0 0.0
2018-May-21 08:30N 47°35' W 122°21'0 0.0
2018-May-21 08:00N 47°35' W 122°21'0 0.0
2018-May-21 07:30N 47°35' W 122°21'0 0.0
2018-May-21 07:00N 47°35' W 122°21'0 0.0
2018-May-21 06:30N 47°35' W 122°21'0 0.0
2018-May-21 06:00N 47°35' W 122°21'0 0.0
2018-May-21 05:30N 47°35' W 122°21'0 0.0
2018-May-21 05:00N 47°35' W 122°21'0 0.0
2018-May-21 04:30N 47°35' W 122°21'0 0.0
2018-May-21 03:59N 47°35' W 122°21'1 1.9
2018-May-21 03:30N 47°36' W 122°22'3 6.2
2018-May-21 03:00N 47°34' W 122°26'4 7.8
2018-May-21 02:30N 47°30' W 122°25'4 7.9
2018-May-21 02:00N 47°26' W 122°23'4 7.6
2018-May-21 01:30N 47°22' W 122°22'4 8.3
2018-May-21 01:00N 47°19' W 122°26'3 5.7
2018-May-21 00:30N 47°17' W 122°25'0 0.7
2018-May-21 00:00N 47°16' W 122°25'1 2.2
2018-May-20 23:30N 47°15' W 122°26'0 0.0
2018-May-20 23:00N 47°15' W 122°26'0 0.0
2018-May-20 22:27N 47°15' W 122°26'0 0.0
2018-May-20 22:00N 47°15' W 122°26'0 0.0
2018-May-20 21:29N 47°15' W 122°26'0 0.0
2018-May-20 21:00N 47°15' W 122°26'0 0.0
2018-May-20 20:30N 47°15' W 122°26'0 0.0
2018-May-20 20:00N 47°15' W 122°26'0 0.0
2018-May-20 19:30N 47°15' W 122°26'0 0.0
2018-May-20 19:00N 47°15' W 122°26'0 0.0
2018-May-20 18:23N 47°15' W 122°26'0 0.0
2018-May-20 18:00N 47°15' W 122°26'0 0.0
2018-May-20 17:30N 47°15' W 122°26'0 0.0
2018-May-20 17:00N 47°15' W 122°26'0 0.0
2018-May-20 16:30N 47°15' W 122°26'0 0.0
2018-May-20 16:00N 47°15' W 122°26'0 0.0
2018-May-20 15:30N 47°15' W 122°26'0 0.0
2018-May-20 15:00N 47°15' W 122°26'0 0.0
2018-May-20 14:27N 47°15' W 122°26'0 0.0
2018-May-20 14:00N 47°15' W 122°26'0 0.0
2018-May-20 13:30N 47°15' W 122°26'0 0.0
2018-May-20 13:00N 47°15' W 122°26'0 0.0
2018-May-20 12:30N 47°15' W 122°26'0 0.0
2018-May-20 12:00N 47°15' W 122°26'0 0.0
2018-May-20 11:30N 47°15' W 122°26'0 0.0
2018-May-20 11:00N 47°15' W 122°26'0 0.0
2018-May-20 10:30N 47°15' W 122°26'0 0.0
2018-May-20 10:00N 47°15' W 122°26'0 0.0
2018-May-20 09:30N 47°15' W 122°26'0 0.0
2018-May-20 09:00N 47°15' W 122°26'0 0.0
2018-May-20 08:29N 47°15' W 122°26'0 0.0
2018-May-20 08:00N 47°15' W 122°26'0 0.0
2018-May-20 07:30N 47°15' W 122°26'1 2.2
2018-May-20 07:00N 47°16' W 122°25'1 1.2
2018-May-20 06:30N 47°17' W 122°25'1 2.3
2018-May-20 05:59N 47°18' W 122°26'0 0.7
2018-May-20 05:29N 47°18' W 122°26'0 0.0
2018-May-20 05:00N 47°18' W 122°26'0 0.0
2018-May-20 04:19N 47°18' W 122°26'0 0.0
2018-May-20 04:00N 47°18' W 122°26'0 0.0
2018-May-20 03:30N 47°18' W 122°26'0 0.0
2018-May-20 02:58N 47°18' W 122°26'2 3.7
2018-May-20 02:30N 47°16' W 122°24'1 2.0
2018-May-20 02:00N 47°16' W 122°23'0 0.0
2018-May-20 01:30N 47°16' W 122°23'0 0.2
2018-May-20 01:00N 47°16' W 122°23'1 2.9
2018-May-20 00:30N 47°17' W 122°25'0 0.5
2018-May-20 00:00N 47°17' W 122°25'0 0.2
2018-May-19 23:30N 47°17' W 122°24'0 0.0
2018-May-19 23:00N 47°17' W 122°24'0 0.0
2018-May-19 22:26N 47°17' W 122°24'3 5.8
2018-May-19 22:00N 47°18' W 122°27'4 7.6
2018-May-19 21:29N 47°22' W 122°25'3 6.6
2018-May-19 21:00N 47°25' W 122°24'4 8.2
2018-May-19 20:30N 47°29' W 122°26'4 8.4
2018-May-19 20:00N 47°33' W 122°27'4 7.3
2018-May-19 19:30N 47°36' W 122°24'2 4.4
2018-May-19 19:00N 47°35' W 122°21'0 0.8
2018-May-19 18:30N 47°35' W 122°21'0 0.0
2018-May-19 17:59N 47°35' W 122°21'0 0.0
2018-May-19 17:30N 47°35' W 122°21'0 0.0
2018-May-19 17:00N 47°35' W 122°21'0 0.0
2018-May-19 16:30N 47°35' W 122°21'0 0.0
2018-May-19 16:00N 47°35' W 122°21'0 0.0
2018-May-19 15:30N 47°35' W 122°21'0 0.3
2018-May-19 15:00N 47°35' W 122°21'1 1.4
2018-May-19 14:30N 47°36' W 122°21'4 8.0
2018-May-19 14:00N 47°33' W 122°26'510.6
2018-May-19 13:30N 47°28' W 122°24'510.4
2018-May-19 13:00N 47°23' W 122°21'510.0
2018-May-19 12:30N 47°20' W 122°26'4 7.6
2018-May-19 11:57N 47°16' W 122°23'0 0.4
2018-May-19 11:30N 47°16' W 122°23'1 1.7
2018-May-19 11:00N 47°16' W 122°24'2 3.4
2018-May-19 10:29N 47°18' W 122°26'0 0.5
2018-May-19 09:57N 47°18' W 122°26'0 0.0
2018-May-19 09:30N 47°18' W 122°26'0 0.0
2018-May-19 08:56N 47°18' W 122°26'0 0.0
2018-May-19 08:28N 47°18' W 122°26'0 0.0
2018-May-19 08:00N 47°18' W 122°26'0 0.0
2018-May-19 07:30N 47°18' W 122°26'0 0.2
2018-May-19 07:00N 47°18' W 122°26'3 5.6
2018-May-19 06:29N 47°21' W 122°26'4 8.1
2018-May-19 06:00N 47°24' W 122°22'4 8.6
2018-May-19 05:30N 47°27' W 122°25'4 8.2
2018-May-19 05:00N 47°31' W 122°26'4 7.8
2018-May-19 04:30N 47°35' W 122°25'3 5.7
2018-May-19 04:00N 47°35' W 122°21'0 0.0
2018-May-19 03:30N 47°35' W 122°21'0 0.0
2018-May-19 03:00N 47°35' W 122°21'0 0.0
2018-May-19 02:30N 47°35' W 122°21'0 0.0
2018-May-19 02:00N 47°35' W 122°21'1 1.1
2018-May-19 01:30N 47°35' W 122°21'0 0.0
2018-May-19 01:00N 47°35' W 122°21'0 0.0
2018-May-19 00:30N 47°35' W 122°21'0 0.1
2018-May-19 00:00N 47°35' W 122°21'1 2.1
2018-May-18 23:30N 47°36' W 122°21'1 2.8
2018-May-18 23:00N 47°36' W 122°23'0 0.4
2018-May-18 22:30N 47°36' W 122°23'1 2.9
2018-May-18 22:00N 47°35' W 122°21'0 0.2
2018-May-18 21:30N 47°35' W 122°21'0 0.7
2018-May-18 21:00N 47°35' W 122°21'0 0.0
2018-May-18 20:30N 47°35' W 122°21'0 0.0
2018-May-18 20:00N 47°35' W 122°21'0 0.0
2018-May-18 19:30N 47°35' W 122°21'0 0.0
2018-May-18 19:00N 47°35' W 122°21'0 0.0
2018-May-18 18:30N 47°35' W 122°21'0 0.0
2018-May-18 18:00N 47°35' W 122°21'0 0.0
2018-May-18 17:30N 47°35' W 122°21'0 0.0
2018-May-18 17:00N 47°35' W 122°21'0 0.0
2018-May-18 16:30N 47°35' W 122°21'0 0.0
2018-May-18 16:00N 47°35' W 122°21'0 0.0
2018-May-18 15:30N 47°35' W 122°21'0 0.0
2018-May-18 15:00N 47°35' W 122°21'0 0.5
2018-May-18 14:30N 47°35' W 122°21'1 1.1
2018-May-18 14:00N 47°35' W 122°21'0 0.8
2018-May-18 13:30N 47°35' W 122°21'2 3.6
2018-May-18 13:00N 47°37' W 122°22'1 2.3
2018-May-18 12:30N 47°36' W 122°21'0 0.5
2018-May-18 12:00N 47°35' W 122°21'0 0.0
2018-May-18 11:30N 47°35' W 122°21'0 0.0
2018-May-18 11:00N 47°35' W 122°21'0 0.0
2018-May-18 10:30N 47°35' W 122°21'0 0.0
2018-May-18 10:00N 47°35' W 122°21'0 0.0
2018-May-18 09:30N 47°35' W 122°21'0 0.0
2018-May-18 09:00N 47°35' W 122°21'0 0.0
2018-May-18 08:30N 47°35' W 122°21'0 0.0
2018-May-18 08:00N 47°35' W 122°21'0 0.8
2018-May-18 07:30N 47°36' W 122°21'4 8.4
2018-May-18 07:00N 47°38' W 122°26'4 7.1
2018-May-18 06:30N 47°42' W 122°28'4 8.0
2018-May-18 06:00N 47°46' W 122°27'4 8.5
2018-May-18 05:30N 47°50' W 122°28'4 8.2
2018-May-18 05:00N 47°54' W 122°30'32 7.7
2018-May-18 00:50N 48°11' W 123°11'410.8
2018-May-18 00:30N 48°10' W 123°16'510.7
2018-May-18 00:00N 48°08' W 123°23'2 2.6
2018-May-17 23:09N 48°08' W 123°27'0 0.1
2018-May-17 23:00N 48°08' W 123°27'2 3.2
2018-May-17 22:30N 48°08' W 123°24'2 2.5
2018-May-17 21:53N 48°08' W 123°27'0 0.0
2018-May-17 20:12N 48°08' W 123°27'2 7.3
2018-May-17 20:00N 48°08' W 123°24'0 0.3
2018-May-17 19:25N 48°08' W 123°25'1 2.3
2018-May-17 18:57N 48°07' W 123°26'31 9.5
2018-May-17 15:39N 48°06' W 122°39'311.4
2018-May-17 15:23N 48°03' W 122°38'411.2
2018-May-17 15:00N 47°59' W 122°35'510.9
2018-May-17 14:31N 47°56' W 122°30'5 9.8
2018-May-17 14:00N 47°51' W 122°28'5 9.4
2018-May-17 13:30N 47°46' W 122°26'5 9.0
2018-May-17 13:00N 47°42' W 122°26'4 8.6
2018-May-17 12:30N 47°38' W 122°27'4 8.9
2018-May-17 12:01N 47°33' W 122°26'4 8.8
2018-May-17 11:30N 47°29' W 122°24'4 8.7
2018-May-17 11:00N 47°25' W 122°22'4 7.1
2018-May-17 10:31N 47°21' W 122°23'4 8.1
2018-May-17 10:00N 47°18' W 122°27'3 6.0
2018-May-17 09:31N 47°15' W 122°26'0 0.0
2018-May-17 09:01N 47°15' W 122°26'0 0.0
2018-May-17 08:30N 47°15' W 122°26'0 0.0
2018-May-17 08:00N 47°15' W 122°26'0 0.0
2018-May-17 07:30N 47°15' W 122°26'0 0.0
2018-May-17 07:00N 47°15' W 122°26'0 0.0
2018-May-17 06:31N 47°15' W 122°26'0 0.0
2018-May-17 06:01N 47°15' W 122°26'0 0.0
2018-May-17 05:30N 47°15' W 122°26'0 0.0
2018-May-17 05:00N 47°15' W 122°26'0 0.0
2018-May-17 04:31N 47°15' W 122°26'0 0.0
2018-May-17 04:01N 47°15' W 122°26'0 0.0
2018-May-17 03:31N 47°15' W 122°26'0 0.0
2018-May-17 03:00N 47°15' W 122°26'1 2.4
2018-May-17 02:31N 47°16' W 122°26'2 2.8
2018-May-17 01:52N 47°17' W 122°23'1 2.3
2018-May-17 01:31N 47°16' W 122°22'0 0.1
2018-May-17 00:21N 47°16' W 122°22'0 0.9
2018-May-16 23:54N 47°16' W 122°23'1 3.4
2018-May-16 23:30N 47°17' W 122°25'0 0.2
2018-May-16 22:59N 47°17' W 122°25'1 2.7
2018-May-16 22:27N 47°16' W 122°23'0 0.7
2018-May-16 21:59N 47°15' W 122°23'2 3.6
2018-May-16 21:30N 47°17' W 122°25'2 3.9
2018-May-16 21:00N 47°18' W 122°27'2 3.3
2018-May-16 20:29N 47°17' W 122°25'1 2.1
2018-May-16 19:53N 47°18' W 122°26'0 0.0
2018-May-16 19:28N 47°18' W 122°26'0 0.0
2018-May-16 19:00N 47°18' W 122°26'0 0.0
2018-May-16 18:28N 47°18' W 122°26'0 0.0
2018-May-16 18:00N 47°18' W 122°26'0 0.0
2018-May-16 17:30N 47°18' W 122°26'0 0.0
2018-May-16 16:58N 47°18' W 122°26'0 0.0
2018-May-16 16:30N 47°18' W 122°26'0 0.0
2018-May-16 15:39N 47°18' W 122°26'0 0.0
2018-May-16 15:24N 47°18' W 122°26'0 0.0
2018-May-16 14:55N 47°18' W 122°26'0 0.0
2018-May-16 14:30N 47°18' W 122°26'0 0.0
2018-May-16 13:59N 47°18' W 122°26'0 0.0
2018-May-16 13:29N 47°18' W 122°26'0 0.0
2018-May-16 12:57N 47°18' W 122°26'2 3.5
2018-May-16 12:29N 47°16' W 122°25'0 1.0
2018-May-16 12:00N 47°17' W 122°26'1 1.8
2018-May-16 11:31N 47°16' W 122°24'1 2.0
2018-May-16 11:01N 47°16' W 122°23'0 0.1
2018-May-16 10:30N 47°16' W 122°23'2 4.4
2018-May-16 10:00N 47°16' W 122°26'1 2.2
2018-May-16 09:30N 47°15' W 122°26'0 0.0
2018-May-16 08:58N 47°15' W 122°26'0 0.0
2018-May-16 08:30N 47°15' W 122°26'0 0.0
2018-May-16 08:00N 47°15' W 122°26'0 0.0
2018-May-16 07:29N 47°15' W 122°26'0 0.0
2018-May-16 07:01N 47°15' W 122°26'0 0.0
2018-May-16 06:25N 47°15' W 122°26'0 0.0
2018-May-16 06:00N 47°15' W 122°26'0 0.0
2018-May-16 05:30N 47°15' W 122°26'0 0.0
2018-May-16 04:57N 47°15' W 122°26'0 0.0
2018-May-16 04:22N 47°15' W 122°26'0 0.0
2018-May-16 04:00N 47°15' W 122°26'0 0.0
2018-May-16 03:30N 47°15' W 122°26'0 0.0
2018-May-16 03:00N 47°15' W 122°26'0 0.0
2018-May-16 02:31N 47°15' W 122°26'0 0.0
2018-May-16 01:33N 47°15' W 122°26'0 0.0
2018-May-16 01:31N 47°15' W 122°26'0 0.0
2018-May-16 01:00N 47°15' W 122°26'0 0.0
2018-May-16 00:31N 47°15' W 122°26'2 3.2
2018-May-15 23:56N 47°16' W 122°23'0 0.3
2018-May-15 23:31N 47°16' W 122°23'1 2.1
2018-May-15 23:00N 47°16' W 122°24'2 4.9
2018-May-15 22:31N 47°18' W 122°27'2 3.7
2018-May-15 21:57N 47°17' W 122°25'2 3.5
2018-May-15 21:30N 47°15' W 122°26'0 0.0
2018-May-15 21:00N 47°15' W 122°26'0 0.0
2018-May-15 20:30N 47°15' W 122°26'0 0.0
2018-May-15 19:59N 47°15' W 122°26'0 0.0
2018-May-15 19:24N 47°15' W 122°26'0 0.0
2018-May-15 19:00N 47°15' W 122°26'0 0.0
2018-May-15 18:27N 47°15' W 122°26'0 0.0
2018-May-15 17:59N 47°15' W 122°26'0 0.0
2018-May-15 17:11N 47°15' W 122°26'0 0.0
2018-May-15 16:59N 47°15' W 122°26'0 0.0
2018-May-15 15:59N 47°15' W 122°26'0 0.0
2018-May-15 15:29N 47°15' W 122°26'0 0.0
2018-May-15 15:00N 47°15' W 122°26'0 0.0
2018-May-15 14:30N 47°15' W 122°26'0 0.0
2018-May-15 13:58N 47°15' W 122°26'0 0.0
2018-May-15 13:31N 47°15' W 122°26'0 0.0
2018-May-15 13:00N 47°15' W 122°26'0 0.0
2018-May-15 12:31N 47°15' W 122°26'1 2.4
2018-May-15 12:00N 47°17' W 122°26'2 3.8
2018-May-15 11:30N 47°16' W 122°23'0 0.7
2018-May-15 10:48N 47°15' W 122°23'0 0.2
2018-May-15 10:30N 47°16' W 122°23'2 4.8
2018-May-15 10:01N 47°16' W 122°26'1 2.1
2018-May-15 09:31N 47°15' W 122°26'0 0.0
2018-May-15 09:00N 47°15' W 122°26'0 0.0
2018-May-15 08:27N 47°15' W 122°26'0 0.0
2018-May-15 07:58N 47°15' W 122°26'0 0.0
2018-May-15 07:30N 47°15' W 122°26'0 0.0
2018-May-15 07:00N 47°15' W 122°26'0 0.0
2018-May-15 06:30N 47°15' W 122°26'0 0.0
2018-May-15 06:00N 47°15' W 122°26'0 0.0
2018-May-15 05:30N 47°15' W 122°26'0 0.0
2018-May-15 05:01N 47°15' W 122°26'0 0.0
2018-May-15 04:31N 47°15' W 122°26'0 0.0
2018-May-15 04:01N 47°15' W 122°26'0 0.0
2018-May-15 03:30N 47°15' W 122°26'0 0.0
2018-May-15 03:01N 47°15' W 122°26'0 0.0
2018-May-15 02:30N 47°15' W 122°26'0 0.0
2018-May-15 01:52N 47°15' W 122°26'0 0.0
2018-May-15 01:30N 47°15' W 122°26'0 0.0
2018-May-15 01:00N 47°15' W 122°26'0 0.0
2018-May-15 00:30N 47°15' W 122°26'0 0.0
2018-May-15 00:00N 47°15' W 122°26'2 3.2
2018-May-14 23:30N 47°17' W 122°25'2 3.3
2018-May-14 23:01N 47°16' W 122°23'0 0.1
2018-May-14 22:30N 47°16' W 122°23'0 0.2
2018-May-14 21:58N 47°16' W 122°23'0 0.0
2018-May-14 19:44N 47°16' W 122°23'0 0.3
2018-May-14 18:17N 47°16' W 122°23'0 0.8
2018-May-14 18:00N 47°16' W 122°23'2 3.6
2018-May-14 17:31N 47°17' W 122°25'1 2.1
2018-May-14 17:00N 47°17' W 122°26'1 1.8
2018-May-14 16:30N 47°18' W 122°27'2 3.5
2018-May-14 16:00N 47°16' W 122°27'0 0.3
2018-May-14 15:31N 47°16' W 122°27'0 0.2
2018-May-14 15:01N 47°16' W 122°27'0 0.1
2018-May-14 14:30N 47°16' W 122°27'0 0.1
2018-May-14 13:58N 47°16' W 122°27'0 0.2
2018-May-14 13:28N 47°16' W 122°27'1 2.8
2018-May-14 13:01N 47°15' W 122°26'0 0.0
2018-May-14 12:30N 47°15' W 122°26'0 0.0
2018-May-14 11:59N 47°15' W 122°26'0 0.0
2018-May-14 11:31N 47°15' W 122°26'0 0.0
2018-May-14 11:00N 47°15' W 122°26'2 3.3
2018-May-14 10:31N 47°16' W 122°24'1 1.9
2018-May-14 10:00N 47°16' W 122°23'1 1.4
2018-May-14 09:30N 47°16' W 122°24'2 4.1
2018-May-14 08:59N 47°18' W 122°26'0 0.1
2018-May-14 08:30N 47°18' W 122°26'0 0.0
2018-May-14 08:00N 47°18' W 122°26'0 0.0
2018-May-14 07:30N 47°18' W 122°26'0 0.0
2018-May-14 06:59N 47°18' W 122°26'0 0.0
2018-May-14 06:29N 47°18' W 122°26'0 0.0
2018-May-14 05:55N 47°18' W 122°26'0 0.0
2018-May-14 05:30N 47°18' W 122°26'0 0.0
2018-May-14 04:59N 47°18' W 122°26'0 0.0
2018-May-14 04:21N 47°18' W 122°26'0 0.0
2018-May-14 03:52N 47°18' W 122°26'1 3.7
2018-May-14 03:30N 47°17' W 122°25'2 3.2
2018-May-14 03:00N 47°16' W 122°23'0 0.3
2018-May-14 02:30N 47°16' W 122°23'2 3.6
2018-May-14 02:00N 47°17' W 122°25'1 1.5
2018-May-14 01:31N 47°17' W 122°26'2 3.6
2018-May-14 01:00N 47°15' W 122°26'0 0.0
2018-May-14 00:30N 47°15' W 122°26'0 0.0
2018-May-13 23:59N 47°15' W 122°26'0 0.0
2018-May-13 23:30N 47°15' W 122°26'0 0.0
2018-May-13 22:58N 47°15' W 122°26'0 0.0
2018-May-13 22:28N 47°15' W 122°26'0 0.0
2018-May-13 21:37N 47°15' W 122°26'0 0.0
2018-May-13 21:30N 47°15' W 122°26'0 0.0
2018-May-13 20:52N 47°15' W 122°26'0 0.0
2018-May-13 20:30N 47°15' W 122°26'0 0.0
2018-May-13 19:59N 47°15' W 122°26'0 0.0
2018-May-13 18:45N 47°15' W 122°26'0 0.1
2018-May-13 18:30N 47°15' W 122°26'2 3.3
2018-May-13 17:52N 47°15' W 122°23'0 0.0
2018-May-13 17:28N 47°16' W 122°23'1 1.7
2018-May-13 16:56N 47°16' W 122°24'2 4.1
2018-May-13 16:30N 47°17' W 122°26'1 1.0
2018-May-13 16:00N 47°18' W 122°26'0 0.0
2018-May-13 15:13N 47°18' W 122°26'0 0.1
2018-May-13 15:00N 47°18' W 122°26'0 0.0
2018-May-13 14:30N 47°18' W 122°26'0 0.0
2018-May-13 13:49N 47°18' W 122°26'0 0.1
2018-May-13 13:30N 47°18' W 122°26'0 0.0
2018-May-13 12:15N 47°18' W 122°26'0 0.1
2018-May-13 11:58N 47°18' W 122°26'1 1.4
2018-May-13 11:25N 47°17' W 122°25'2 4.4
2018-May-13 11:00N 47°16' W 122°23'0 0.2
2018-May-13 10:30N 47°16' W 122°23'2 4.7
2018-May-13 10:00N 47°18' W 122°26'0 0.0
2018-May-13 09:26N 47°18' W 122°26'0 0.0
2018-May-13 09:00N 47°18' W 122°26'0 0.0
2018-May-13 08:29N 47°18' W 122°26'0 0.0
2018-May-13 08:00N 47°18' W 122°26'0 0.0
2018-May-13 07:30N 47°18' W 122°26'0 0.0
2018-May-13 06:58N 47°18' W 122°26'0 0.0
2018-May-13 06:31N 47°18' W 122°26'0 0.0
2018-May-13 05:59N 47°18' W 122°26'0 0.9
2018-May-13 05:31N 47°18' W 122°26'4 8.7
2018-May-13 05:00N 47°20' W 122°32'4 7.9
2018-May-13 04:31N 47°24' W 122°32'4 8.5
2018-May-13 04:00N 47°28' W 122°31'4 8.9
2018-May-13 03:31N 47°32' W 122°28'1 2.2
2018-May-13 03:01N 47°33' W 122°29'0 0.2
2018-May-13 02:30N 47°33' W 122°29'0 0.1
2018-May-13 02:01N 47°33' W 122°29'0 0.1
2018-May-13 01:31N 47°33' W 122°29'0 0.0
2018-May-13 01:00N 47°33' W 122°29'0 0.1
2018-May-13 00:31N 47°33' W 122°29'0 0.1
2018-May-13 00:01N 47°33' W 122°29'0 0.0
2018-May-12 23:31N 47°33' W 122°29'0 0.1
2018-May-12 23:01N 47°33' W 122°29'0 0.1
2018-May-12 22:31N 47°33' W 122°29'0 0.2
2018-May-12 22:01N 47°33' W 122°29'0 0.1
2018-May-12 21:31N 47°33' W 122°29'0 0.1
2018-May-12 21:01N 47°33' W 122°29'0 0.1
2018-May-12 20:30N 47°33' W 122°29'0 0.1
2018-May-12 20:00N 47°33' W 122°29'0 0.1
2018-May-12 19:31N 47°33' W 122°29'0 0.0
2018-May-12 19:01N 47°33' W 122°29'0 0.0
2018-May-12 18:30N 47°33' W 122°29'0 0.0
2018-May-12 18:01N 47°33' W 122°29'0 0.1
2018-May-12 17:30N 47°33' W 122°29'0 0.1
2018-May-12 17:01N 47°33' W 122°29'2 4.1
2018-May-12 16:31N 47°31' W 122°29'5 9.7
2018-May-12 16:01N 47°27' W 122°31'5 9.8
2018-May-12 15:31N 47°22' W 122°32'4 7.5
2018-May-12 15:00N 47°19' W 122°29'3 5.0
2018-May-12 14:30N 47°18' W 122°26'0 0.0
2018-May-12 14:00N 47°18' W 122°26'0 0.0
2018-May-12 13:29N 47°18' W 122°26'0 0.0
2018-May-12 13:00N 47°18' W 122°26'0 0.0
2018-May-12 12:31N 47°18' W 122°26'0 0.0
2018-May-12 12:00N 47°18' W 122°26'0 0.0
2018-May-12 11:31N 47°18' W 122°26'0 0.0
2018-May-12 11:01N 47°18' W 122°26'1 2.4
2018-May-12 10:30N 47°17' W 122°26'1 2.6
2018-May-12 10:01N 47°15' W 122°26'0 0.0
2018-May-12 09:28N 47°15' W 122°26'0 0.0
2018-May-12 08:59N 47°15' W 122°26'0 0.0
2018-May-12 08:31N 47°15' W 122°26'0 0.0
2018-May-12 08:00N 47°15' W 122°26'0 0.0
2018-May-12 07:30N 47°15' W 122°26'0 0.0
2018-May-12 06:53N 47°15' W 122°26'0 0.0
2018-May-12 06:22N 47°15' W 122°26'0 0.0
2018-May-12 05:59N 47°15' W 122°26'0 0.0
2018-May-12 05:30N 47°15' W 122°26'0 0.0
2018-May-12 05:00N 47°15' W 122°26'0 0.0
2018-May-12 04:30N 47°15' W 122°26'0 0.0
2018-May-12 03:59N 47°15' W 122°26'0 0.0
2018-May-12 03:28N 47°15' W 122°26'0 0.0
2018-May-12 03:00N 47°15' W 122°26'0 0.4
2018-May-12 02:30N 47°15' W 122°26'2 0.6
2018-May-11 22:30N 47°16' W 122°23'2 0.4
2018-May-11 18:33N 47°16' W 122°25'1 2.7
2018-May-11 18:12N 47°16' W 122°26'  

Dump ship's entire track history